Time;durP1;ratioP1;P1;durP2;ratioP2;P2;SDS_P1;SDS_P2;PMS_P1;PMS_P2;Temp;Humidity;BMP_temperature;BMP_pressure;BME280_temperature;BME280_humidity;BME280_pressure;Samples;Min_cycle;Max_cycle;Signal;HPM_P1;HPM_P2
2022/04/07 00:01:39;;;;;;;1.83;1.00;;;;;;;;;;5085464;28;20442;-70
2022/04/07 00:04:08;;;;;;;1.88;1.00;;;;;;;;;;5088711;28;20055;-70
2022/04/07 00:06:37;;;;;;;0.82;0.70;;;;;;;;;;5086438;28;20085;-70
2022/04/07 00:09:06;;;;;;;1.00;0.88;;;;;;;;;;5086625;28;20135;-70
2022/04/07 00:11:34;;;;;;;1.20;0.70;;;;;;;;;;5086866;28;20546;-70
2022/04/07 00:14:04;;;;;;;1.67;0.80;;;;;;;;;;5081922;28;20567;-70
2022/04/07 00:16:32;;;;;;;1.77;0.73;;;;;;;;;;5087680;28;20139;-70
2022/04/07 00:19:01;;;;;;;1.20;0.73;;;;;;;;;;5085366;28;20048;-70
2022/04/07 00:21:38;;;;;;;2.10;1.10;;;;;;;;;;5084897;28;20047;-70
2022/04/07 00:24:07;;;;;;;2.47;1.10;;;;;;;;;;5085840;28;20044;-70
2022/04/07 00:26:35;;;;;;;1.80;1.02;;;;;;;;;;5086410;28;20067;-70
2022/04/07 00:29:05;;;;;;;1.95;1.05;;;;;;;;;;5089369;28;20056;-70
2022/04/07 00:31:39;;;;;;;1.33;0.90;;;;;;;;;;5085813;28;20051;-70
2022/04/07 00:34:10;;;;;;;1.27;0.80;;;;;;;;;;5085816;28;20151;-70
2022/04/07 00:36:38;;;;;;;2.67;0.88;;;;;;;;;;5082782;28;20082;-70
2022/04/07 00:39:07;;;;;;;0.90;0.70;;;;;;;;;;5085902;28;20044;-70
2022/04/07 00:41:37;;;;;;;1.00;0.70;;;;;;;;;;5086163;28;20146;-70
2022/04/07 00:44:08;;;;;;;1.38;0.95;;;;;;;;;;5086935;28;20044;-70
2022/04/07 00:46:37;;;;;;;2.40;0.98;;;;;;;;;;5086756;28;20136;-71
2022/04/07 00:49:06;;;;;;;1.35;0.80;;;;;;;;;;5084827;28;20051;-70
2022/04/07 00:51:35;;;;;;;1.17;0.80;;;;;;;;;;5085549;28;20079;-70
2022/04/07 00:54:03;;;;;;;2.22;0.77;;;;;;;;;;5088813;28;20067;-70
2022/04/07 00:56:32;;;;;;;1.63;0.60;;;;;;;;;;5085970;28;20071;-70
2022/04/07 00:59:00;;;;;;;0.77;0.65;;;;;;;;;;5086169;28;20076;-70
2022/04/07 01:01:30;;;;;;;0.90;0.60;;;;;;;;;;5084271;28;20067;-70
2022/04/07 01:03:59;;;;;;;1.23;0.90;;;;;;;;;;5086807;28;20044;-70
2022/04/07 01:06:27;;;;;;;1.25;0.63;;;;;;;;;;5076599;28;20522;-70
2022/04/07 01:08:56;;;;;;;0.98;0.70;;;;;;;;;;5085789;28;20048;-70
2022/04/07 01:11:25;;;;;;;1.75;0.88;;;;;;;;;;5084627;28;20492;-70
2022/04/07 01:13:53;;;;;;;0.88;0.70;;;;;;;;;;5086312;28;20454;-69
2022/04/07 01:16:22;;;;;;;1.20;0.60;;;;;;;;;;5086089;28;20075;-70
2022/04/07 01:18:52;;;;;;;0.82;0.70;;;;;;;;;;5084867;28;20123;-70
2022/04/07 01:21:21;;;;;;;0.70;0.68;;;;;;;;;;5084069;28;20044;-70
2022/04/07 01:23:54;;;;;;;1.35;0.82;;;;;;;;;;5081660;28;20063;-70
2022/04/07 01:26:24;;;;;;;1.45;0.90;;;;;;;;;;5096408;28;20575;-70
2022/04/07 01:28:52;;;;;;;2.15;0.88;;;;;;;;;;5089843;28;20140;-69
2022/04/07 01:31:21;;;;;;;1.45;0.90;;;;;;;;;;5088254;28;20147;-70
2022/04/07 01:33:49;;;;;;;1.23;0.75;;;;;;;;;;5088321;28;20056;-70
2022/04/07 01:36:17;;;;;;;1.48;1.10;;;;;;;;;;5089913;28;20048;-70
2022/04/07 01:38:46;;;;;;;1.95;0.98;;;;;;;;;;5087779;28;20472;-70
2022/04/07 01:41:15;;;;;;;1.02;0.82;;;;;;;;;;5089426;28;20565;-69
2022/04/07 01:43:45;;;;;;;1.55;1.00;;;;;;;;;;5088093;28;20446;-70
2022/04/07 01:46:13;;;;;;;1.65;1.08;;;;;;;;;;5089279;28;20132;-69
2022/04/07 01:48:42;;;;;;;2.17;1.08;;;;;;;;;;5083694;28;20056;-70
2022/04/07 01:51:12;;;;;;;1.05;0.68;;;;;;;;;;5088409;28;20147;-70
2022/04/07 01:53:41;;;;;;;0.93;0.80;;;;;;;;;;5089198;28;20039;-70
2022/04/07 01:56:10;;;;;;;1.13;0.65;;;;;;;;;;5087364;28;20082;-70
2022/04/07 01:58:38;;;;;;;1.48;0.82;;;;;;;;;;5090920;28;20127;-70
2022/04/07 02:01:08;;;;;;;2.72;0.70;;;;;;;;;;5089463;28;20149;-70
2022/04/07 02:03:37;;;;;;;0.90;0.80;;;;;;;;;;5086955;28;20106;-70
2022/04/07 02:06:12;;;;;;;1.33;0.63;;;;;;;;;;5092721;28;20078;-70
2022/04/07 02:08:41;;;;;;;0.82;0.77;;;;;;;;;;5086426;28;20463;-70
2022/04/07 02:11:10;;;;;;;1.63;0.88;;;;;;;;;;5088794;28;20052;-70
2022/04/07 02:13:39;;;;;;;1.15;0.80;;;;;;;;;;5085378;28;20062;-69
2022/04/07 02:16:09;;;;;;;1.10;0.70;;;;;;;;;;5091383;28;20075;-70
2022/04/07 02:18:38;;;;;;;2.50;0.68;;;;;;;;;;5090004;28;20113;-70
2022/04/07 02:21:06;;;;;;;1.15;0.75;;;;;;;;;;5086718;28;20147;-70
2022/04/07 02:23:41;;;;;;;1.25;0.80;;;;;;;;;;5088899;28;20055;-70
2022/04/07 02:26:10;;;;;;;1.10;0.90;;;;;;;;;;5092427;28;20056;-70
2022/04/07 02:28:39;;;;;;;1.60;0.90;;;;;;;;;;5088388;28;20102;-70
2022/04/07 02:31:09;;;;;;;0.98;0.80;;;;;;;;;;5085847;28;20555;-70
2022/04/07 02:33:37;;;;;;;3.60;1.10;;;;;;;;;;5089586;28;20134;-70
2022/04/07 02:36:09;;;;;;;3.67;0.85;;;;;;;;;;5084526;28;20044;-70
2022/04/07 02:38:38;;;;;;;1.77;1.15;;;;;;;;;;5084203;28;20174;-70
2022/04/07 02:41:09;;;;;;;0.85;0.70;;;;;;;;;;5089472;28;20472;-70
2022/04/07 02:43:37;;;;;;;1.35;0.82;;;;;;;;;;5085157;28;20139;-70
2022/04/07 02:46:05;;;;;;;1.55;0.70;;;;;;;;;;5093076;28;20473;-70
2022/04/07 02:48:35;;;;;;;1.02;0.73;;;;;;;;;;5083035;28;20048;-70
2022/04/07 02:51:06;;;;;;;1.10;0.95;;;;;;;;;;5080977;28;20126;-70
2022/04/07 02:53:34;;;;;;;1.58;1.02;;;;;;;;;;5076195;28;20139;-70
2022/04/07 02:56:05;;;;;;;1.13;1.00;;;;;;;;;;5088305;28;20082;-70
2022/04/07 02:58:34;;;;;;;1.73;1.00;;;;;;;;;;5077942;28;20499;-70
2022/04/07 03:01:04;;;;;;;0.98;0.80;;;;;;;;;;5093817;28;20547;-70
2022/04/07 03:03:32;;;;;;;1.88;0.93;;;;;;;;;;5086617;28;20149;-70
2022/04/07 03:06:05;;;;;;;1.52;0.80;;;;;;;;;;5092143;28;20109;-70
2022/04/07 03:08:33;;;;;;;2.83;1.02;;;;;;;;;;5091762;28;20050;-70
2022/04/07 03:11:09;;;;;;;1.30;1.00;;;;;;;;;;5082140;28;20574;-70
2022/04/07 03:13:37;;;;;;;1.02;0.90;;;;;;;;;;5082678;28;20135;-70
2022/04/07 03:16:08;;;;;;;2.35;0.90;;;;;;;;;;5079139;28;20045;-70
2022/04/07 03:18:37;;;;;;;4.60;1.00;;;;;;;;;;5078266;28;20056;-70
2022/04/07 03:21:10;;;;;;;1.35;0.80;;;;;;;;;;5086799;28;20133;-70
2022/04/07 03:23:38;;;;;;;0.95;0.75;;;;;;;;;;5091144;28;20046;-70
2022/04/07 03:26:06;;;;;;;1.90;1.10;;;;;;;;;;5097558;28;20123;-70
2022/04/07 03:28:34;;;;;;;2.38;1.23;;;;;;;;;;5087493;28;20083;-70
2022/04/07 03:31:05;;;;;;;0.90;0.65;;;;;;;;;;5080868;28;20036;-70
2022/04/07 03:33:33;;;;;;;1.58;0.93;;;;;;;;;;5089597;28;20050;-70
2022/04/07 03:36:01;;;;;;;1.25;0.82;;;;;;;;;;5090018;28;20042;-70
2022/04/07 03:38:35;;;;;;;1.92;0.90;;;;;;;;;;5087414;28;20480;-71
2022/04/07 03:41:07;;;;;;;1.17;0.85;;;;;;;;;;5089441;28;20071;-71
2022/04/07 03:43:35;;;;;;;1.20;0.80;;;;;;;;;;5087417;28;20421;-70
2022/04/07 03:46:06;;;;;;;1.40;0.80;;;;;;;;;;5088900;28;20098;-70
2022/04/07 03:48:34;;;;;;;1.52;0.80;;;;;;;;;;5079795;28;20051;-70
2022/04/07 03:51:06;;;;;;;0.80;0.70;;;;;;;;;;5085383;28;20625;-70
2022/04/07 03:53:35;;;;;;;1.20;0.63;;;;;;;;;;5083350;28;20064;-70
2022/04/07 03:56:06;;;;;;;5.07;0.80;;;;;;;;;;5083105;28;20039;-71
2022/04/07 03:58:34;;;;;;;0.95;0.50;;;;;;;;;;5080486;28;20122;-71
2022/04/07 04:01:06;;;;;;;1.15;0.68;;;;;;;;;;5084575;28;20782;-70
2022/04/07 04:03:34;;;;;;;0.65;0.50;;;;;;;;;;5089354;28;20044;-71
2022/04/07 04:06:06;;;;;;;1.02;0.65;;;;;;;;;;5086335;28;20044;-70
2022/04/07 04:08:35;;;;;;;2.20;0.85;;;;;;;;;;5084304;28;20482;-70
2022/04/07 04:11:06;;;;;;;1.80;0.60;;;;;;;;;;5087065;28;20076;-71
2022/04/07 04:13:35;;;;;;;1.70;0.80;;;;;;;;;;5088399;28;20572;-71
2022/04/07 04:16:06;;;;;;;0.95;0.80;;;;;;;;;;5087100;28;20044;-70
2022/04/07 04:18:35;;;;;;;0.68;0.55;;;;;;;;;;5082707;28;20529;-70
2022/04/07 04:21:07;;;;;;;0.60;0.60;;;;;;;;;;5080355;28;20055;-70
2022/04/07 04:23:38;;;;;;;1.08;0.57;;;;;;;;;;5089840;28;20047;-70
2022/04/07 04:26:06;;;;;;;0.80;0.60;;;;;;;;;;5086235;28;20496;-70
2022/04/07 04:28:35;;;;;;;0.80;0.52;;;;;;;;;;5087053;28;20234;-70
2022/04/07 04:31:11;;;;;;;1.15;0.73;;;;;;;;;;5084749;28;20128;-70
2022/04/07 04:33:39;;;;;;;1.60;0.60;;;;;;;;;;5088900;28;20075;-70
2022/04/07 04:36:09;;;;;;;3.72;0.55;;;;;;;;;;5084551;28;20561;-69
2022/04/07 04:38:38;;;;;;;2.15;0.47;;;;;;;;;;5088640;28;20078;-70
2022/04/07 04:41:07;;;;;;;0.63;0.50;;;;;;;;;;5084030;28;20056;-69
2022/04/07 04:43:35;;;;;;;1.08;0.63;;;;;;;;;;5079995;28;20050;-70
2022/04/07 04:46:08;;;;;;;1.45;0.50;;;;;;;;;;5079991;28;20087;-70
2022/04/07 04:48:38;;;;;;;0.57;0.40;;;;;;;;;;5081501;28;20342;-70
2022/04/07 04:51:09;;;;;;;1.23;0.57;;;;;;;;;;5084000;28;20044;-70
2022/04/07 04:53:39;;;;;;;0.82;0.60;;;;;;;;;;5079364;28;20067;-70
2022/04/07 04:56:07;;;;;;;1.08;0.50;;;;;;;;;;5083215;28;20097;-70
2022/04/07 04:58:36;;;;;;;0.85;0.50;;;;;;;;;;5080823;28;20129;-70
2022/04/07 05:01:07;;;;;;;0.63;0.60;;;;;;;;;;5078138;28;20135;-70
2022/04/07 05:03:35;;;;;;;0.82;0.70;;;;;;;;;;5082988;28;20048;-70
2022/04/07 05:06:06;;;;;;;3.35;1.25;;;;;;;;;;5080842;28;20080;-70
2022/04/07 05:08:35;;;;;;;1.50;0.68;;;;;;;;;;5081930;28;20133;-70
2022/04/07 05:11:07;;;;;;;1.15;0.75;;;;;;;;;;5080729;28;20130;-70
2022/04/07 05:13:35;;;;;;;1.02;0.60;;;;;;;;;;5079917;28;20040;-70
2022/04/07 05:16:08;;;;;;;1.48;0.55;;;;;;;;;;5086285;28;20047;-70
2022/04/07 05:18:36;;;;;;;1.38;0.65;;;;;;;;;;5087177;28;20087;-70
2022/04/07 05:21:07;;;;;;;0.57;0.55;;;;;;;;;;5083579;28;20568;-69
2022/04/07 05:23:36;;;;;;;1.48;0.52;;;;;;;;;;5085674;28;20128;-70
2022/04/07 05:26:08;;;;;;;0.73;0.50;;;;;;;;;;5086947;28;20128;-70
2022/04/07 05:28:37;;;;;;;1.17;0.65;;;;;;;;;;5096167;28;20395;-70
2022/04/07 05:31:08;;;;;;;0.63;0.50;;;;;;;;;;5091270;28;20044;-70
2022/04/07 05:33:37;;;;;;;1.23;0.60;;;;;;;;;;5089877;28;20455;-70
2022/04/07 05:36:08;;;;;;;0.88;0.40;;;;;;;;;;5079801;28;20507;-69
2022/04/07 05:38:36;;;;;;;1.48;0.60;;;;;;;;;;5088235;28;20128;-69
2022/04/07 05:41:09;;;;;;;0.50;0.50;;;;;;;;;;5082238;28;20110;-70
2022/04/07 05:43:37;;;;;;;4.20;0.70;;;;;;;;;;5082063;28;20082;-70
2022/04/07 05:46:09;;;;;;;1.60;0.50;;;;;;;;;;5087297;28;20040;-69
2022/04/07 05:48:37;;;;;;;2.25;0.52;;;;;;;;;;5090091;28;20048;-69
2022/04/07 05:51:08;;;;;;;1.88;0.50;;;;;;;;;;5089998;28;20131;-69
2022/04/07 05:53:37;;;;;;;1.58;0.40;;;;;;;;;;5088304;28;20119;-70
2022/04/07 05:56:09;;;;;;;1.13;0.60;;;;;;;;;;5089045;28;20052;-71
2022/04/07 05:58:38;;;;;;;0.50;0.50;;;;;;;;;;5088864;28;20068;-70
2022/04/07 06:01:09;;;;;;;0.73;0.52;;;;;;;;;;5085263;28;20131;-69
2022/04/07 06:03:38;;;;;;;1.88;0.50;;;;;;;;;;5083180;28;20044;-69
2022/04/07 06:06:09;;;;;;;0.45;0.40;;;;;;;;;;5083750;28;20146;-69
2022/04/07 06:08:37;;;;;;;1.95;0.63;;;;;;;;;;5084644;28;21025;-69
2022/04/07 06:11:06;;;;;;;1.45;0.60;;;;;;;;;;5092703;28;20085;-69
2022/04/07 06:13:38;;;;;;;0.90;0.50;;;;;;;;;;5092931;28;20043;-69
2022/04/07 06:16:07;;;;;;;0.57;0.52;;;;;;;;;;5091533;28;20044;-69
2022/04/07 06:18:36;;;;;;;2.13;0.57;;;;;;;;;;5080102;28;20045;-69
2022/04/07 06:21:07;;;;;;;0.40;0.40;;;;;;;;;;5091880;28;20447;-70
2022/04/07 06:23:35;;;;;;;2.15;0.63;;;;;;;;;;5093360;28;20048;-69
2022/04/07 06:26:07;;;;;;;2.78;0.70;;;;;;;;;;5084961;28;20072;-70
2022/04/07 06:28:36;;;;;;;0.90;0.60;;;;;;;;;;5085234;28;20173;-70
2022/04/07 06:31:08;;;;;;;1.42;0.60;;;;;;;;;;5094742;28;20047;-71
2022/04/07 06:33:36;;;;;;;0.68;0.50;;;;;;;;;;5086693;28;20123;-71
2022/04/07 06:36:26;;;;;;;0.98;0.40;;;;;;;;;;5088271;28;20055;-70
2022/04/07 06:38:54;;;;;;;1.90;0.80;;;;;;;;;;5090815;28;20048;-70
2022/04/07 06:41:23;;;;;;;3.35;0.70;;;;;;;;;;5088912;28;20472;-70
2022/04/07 06:43:55;;;;;;;0.95;0.57;;;;;;;;;;5080395;28;20082;-70
2022/04/07 06:46:24;;;;;;;0.73;0.50;;;;;;;;;;5075087;28;20415;-70
2022/04/07 06:48:52;;;;;;;0.70;0.60;;;;;;;;;;5077536;28;20127;-71
2022/04/07 06:51:21;;;;;;;0.40;0.40;;;;;;;;;;5084687;28;20049;-71
2022/04/07 06:53:50;;;;;;;0.43;0.40;;;;;;;;;;5075480;28;20123;-70
2022/04/07 06:56:18;;;;;;;4.75;1.00;;;;;;;;;;5072483;28;20053;-70
2022/04/07 06:58:46;;;;;;;1.38;0.40;;;;;;;;;;5073716;28;20045;-71
2022/04/07 07:01:16;;;;;;;0.70;0.40;;;;;;;;;;5072161;28;20052;-68
2022/04/07 07:03:45;;;;;;;3.70;0.35;;;;;;;;;;5069978;28;20091;-69
2022/04/07 07:06:14;;;;;;;0.93;0.50;;;;;;;;;;5071770;28;20052;-69
2022/04/07 07:08:45;;;;;;;0.57;0.50;;;;;;;;;;5073851;28;20552;-69
2022/04/07 07:11:14;;;;;;;0.55;0.43;;;;;;;;;;5058417;28;20041;-69
2022/04/07 07:13:43;;;;;;;0.93;0.52;;;;;;;;;;5079618;28;20063;-70
2022/04/07 07:16:12;;;;;;;3.35;0.47;;;;;;;;;;5078415;28;20049;-69
2022/04/07 07:18:43;;;;;;;2.05;0.40;;;;;;;;;;5070297;28;20523;-69
2022/04/07 07:21:11;;;;;;;1.05;0.40;;;;;;;;;;5066836;28;20101;-69
2022/04/07 07:23:40;;;;;;;1.10;0.40;;;;;;;;;;5070402;28;20424;-70
2022/04/07 07:26:09;;;;;;;0.82;0.47;;;;;;;;;;5077697;28;20048;-69
2022/04/07 07:28:38;;;;;;;0.20;0.20;;;;;;;;;;5083414;28;20066;-69
2022/04/07 07:31:07;;;;;;;0.73;0.50;;;;;;;;;;5084855;28;20040;-69
2022/04/07 07:33:35;;;;;;;0.63;0.50;;;;;;;;;;5074451;28;20123;-69
2022/04/07 07:36:09;;;;;;;0.32;0.22;;;;;;;;;;5060034;28;20052;-69
2022/04/07 07:38:38;;;;;;;0.77;0.43;;;;;;;;;;5062615;28;20053;-69
2022/04/07 07:41:07;;;;;;;0.60;0.38;;;;;;;;;;5077239;28;20056;-69
2022/04/07 07:43:35;;;;;;;0.43;0.30;;;;;;;;;;5060833;28;20486;-69
2022/04/07 07:46:07;;;;;;;4.70;0.45;;;;;;;;;;5071585;28;20040;-69
2022/04/07 07:48:36;;;;;;;1.25;0.50;;;;;;;;;;5081484;28;20376;-69
2022/04/07 07:51:09;;;;;;;0.30;0.10;;;;;;;;;;5070055;28;20055;-69
2022/04/07 07:53:38;;;;;;;3.05;0.35;;;;;;;;;;5057946;28;20052;-69
2022/04/07 07:56:07;;;;;;;0.28;0.25;;;;;;;;;;5070478;28;20049;-69
2022/04/07 07:58:35;;;;;;;1.38;0.40;;;;;;;;;;5075290;28;20100;-69
2022/04/07 08:01:11;;;;;;;0.22;0.22;;;;;;;;;;5076698;28;20423;-69
2022/04/07 08:03:40;;;;;;;0.50;0.30;;;;;;;;;;5084276;28;20040;-69
2022/04/07 08:06:10;;;;;;;3.78;0.38;;;;;;;;;;5072897;28;20379;-69
2022/04/07 08:08:39;;;;;;;0.40;0.30;;;;;;;;;;5077170;28;20492;-69
2022/04/07 08:11:16;;;;;;;0.25;0.25;;;;;;;;;;5051710;28;20444;-69
2022/04/07 08:13:45;;;;;;;1.60;0.70;;;;;;;;;;5064080;28;20060;-69
2022/04/07 08:16:14;;;;;;;0.77;0.30;;;;;;;;;;5068106;28;20126;-69
2022/04/07 08:18:43;;;;;;;1.35;0.30;;;;;;;;;;5079167;28;20057;-69
2022/04/07 08:21:14;;;;;;;1.77;0.20;;;;;;;;;;5076710;28;20045;-70
2022/04/07 08:23:43;;;;;;;0.30;0.30;;;;;;;;;;5085182;28;20130;-69
2022/04/07 08:26:12;;;;;;;1.13;0.40;;;;;;;;;;5069383;28;20136;-69
2022/04/07 08:28:41;;;;;;;0.25;0.25;;;;;;;;;;5086831;28;20039;-69
2022/04/07 08:31:11;;;;;;;0.30;0.30;;;;;;;;;;5080571;28;20075;-70
2022/04/07 08:33:41;;;;;;;0.52;0.38;;;;;;;;;;5074987;28;20680;-70
2022/04/07 08:36:09;;;;;;;0.20;0.20;;;;;;;;;;5069940;28;20044;-69
2022/04/07 08:38:40;;;;;;;0.20;0.20;;;;;;;;;;5061797;28;20044;-69
2022/04/07 08:41:09;;;;;;;0.20;0.20;;;;;;;;;;5087170;28;20056;-70
2022/04/07 08:43:39;;;;;;;0.10;0.10;;;;;;;;;;5088619;28;20093;-70
2022/04/07 08:46:08;;;;;;;0.10;0.10;;;;;;;;;;5082152;28;20096;-69
2022/04/07 08:48:38;;;;;;;2.67;0.30;;;;;;;;;;5087816;28;20522;-71
2022/04/07 08:51:08;;;;;;;1.02;0.85;;;;;;;;;;5084124;28;20048;-70
2022/04/07 08:53:37;;;;;;;0.40;0.20;;;;;;;;;;5087967;28;20055;-70
2022/04/07 08:56:11;;;;;;;0.30;0.30;;;;;;;;;;5087346;28;20445;-70
2022/04/07 08:58:40;;;;;;;0.93;0.25;;;;;;;;;;5087291;28;20055;-70
2022/04/07 09:01:09;;;;;;;0.70;0.30;;;;;;;;;;5085493;28;20052;-69
2022/04/07 09:03:38;;;;;;;0.40;0.20;;;;;;;;;;5090153;28;20056;-70
2022/04/07 09:06:07;;;;;;;6.93;0.47;;;;;;;;;;5084538;28;20127;-69
2022/04/07 09:08:37;;;;;;;2.60;0.40;;;;;;;;;;5081550;28;20175;-70
2022/04/07 09:11:10;;;;;;;0.30;0.20;;;;;;;;;;5085655;28;20040;-70
2022/04/07 09:13:41;;;;;;;0.40;0.40;;;;;;;;;;5087460;28;20036;-70
2022/04/07 09:16:12;;;;;;;0.60;0.20;;;;;;;;;;5091526;28;20483;-70
2022/04/07 09:18:41;;;;;;;0.63;0.30;;;;;;;;;;5085265;28;20105;-70
2022/04/07 09:21:17;;;;;;;0.63;0.40;;;;;;;;;;5087170;28;20115;-70
2022/04/07 09:23:46;;;;;;;1.92;0.43;;;;;;;;;;5089242;28;20074;-69
2022/04/07 09:26:17;;;;;;;1.05;0.40;;;;;;;;;;5089840;28;20055;-70
2022/04/07 09:28:46;;;;;;;0.28;0.28;;;;;;;;;;5087325;28;20036;-70
2022/04/07 09:31:16;;;;;;;2.40;0.25;;;;;;;;;;5089210;28;20052;-70
2022/04/07 09:33:45;;;;;;;0.38;0.30;;;;;;;;;;5098411;28;20051;-70
2022/04/07 09:36:19;;;;;;;11.07;0.52;;;;;;;;;;5087806;28;20384;-70
2022/04/07 09:38:50;;;;;;;0.50;0.30;;;;;;;;;;5083029;28;20635;-69
2022/04/07 09:41:21;;;;;;;0.82;0.25;;;;;;;;;;5086917;28;20088;-69
2022/04/07 09:43:50;;;;;;;1.73;0.20;;;;;;;;;;5089552;28;20105;-69
2022/04/07 09:46:20;;;;;;;0.22;0.22;;;;;;;;;;5090228;28;20547;-70
2022/04/07 09:48:59;;;;;;;1.00;0.43;;;;;;;;;;5090261;28;20051;-70
2022/04/07 09:51:28;;;;;;;0.10;0.10;;;;;;;;;;5089812;28;20055;-69
2022/04/07 09:53:57;;;;;;;0.20;0.20;;;;;;;;;;5093552;28;20067;-69
2022/04/07 09:56:30;;;;;;;0.30;0.20;;;;;;;;;;5091382;28;20074;-69
2022/04/07 09:58:59;;;;;;;0.40;0.30;;;;;;;;;;5088982;28;20101;-69
2022/04/07 10:01:32;;;;;;;0.20;0.20;;;;;;;;;;5087284;28;20043;-70
2022/04/07 10:04:03;;;;;;;0.20;0.20;;;;;;;;;;5091699;28;20048;-70
2022/04/07 10:06:33;;;;;;;2.03;0.40;;;;;;;;;;5088120;28;20048;-70
2022/04/07 10:09:02;;;;;;;1.65;0.30;;;;;;;;;;5091397;28;20097;-69
2022/04/07 10:11:32;;;;;;;0.55;0.30;;;;;;;;;;5089778;28;20472;-69
2022/04/07 10:14:01;;;;;;;0.32;0.22;;;;;;;;;;5083787;28;20041;-70
2022/04/07 10:16:45;;;;;;;1.05;0.13;;;;;;;;;;5085058;28;20693;-71
2022/04/07 10:19:18;;;;;;;0.47;0.30;;;;;;;;;;5088085;28;20094;-71
2022/04/07 10:21:52;;;;;;;1.15;0.20;;;;;;;;;;5090742;28;20048;-71
2022/04/07 10:24:28;;;;;;;0.32;0.20;;;;;;;;;;5089930;28;20051;-70
2022/04/07 10:27:21;;;;;;;0.20;0.17;;;;;;;;;;5090061;28;20040;-70
2022/04/07 10:30:02;;;;;;;2.33;0.20;;;;;;;;;;5092069;28;20036;-71
2022/04/07 10:32:36;;;;;;;2.15;0.20;;;;;;;;;;5084427;28;20044;-71
2022/04/07 10:35:04;;;;;;;0.20;0.10;;;;;;;;;;5084006;28;20435;-70
2022/04/07 10:37:42;;;;;;;2.05;0.60;;;;;;;;;;5085756;28;20048;-70
2022/04/07 10:40:29;;;;;;;2.70;0.30;;;;;;;;;;5086158;28;20596;-71
2022/04/07 10:43:10;;;;;;;0.20;0.20;;;;;;;;;;5086551;28;20079;-70
2022/04/07 10:45:40;;;;;;;1.50;0.30;;;;;;;;;;5084155;28;20132;-71
2022/04/07 10:48:22;;;;;;;0.20;0.20;;;;;;;;;;5089918;28;20086;-70
2022/04/07 10:50:51;;;;;;;1.48;0.25;;;;;;;;;;5080299;28;20082;-70
2022/04/07 10:53:25;;;;;;;0.52;0.30;;;;;;;;;;5087177;28;20048;-69
2022/04/07 10:55:55;;;;;;;3.13;0.57;;;;;;;;;;5083862;28;20494;-71
2022/04/07 11:01:51;;;;;;;0.55;0.25;;;;;;;;;;5104923;27;20473;-70
2022/04/07 11:04:37;;;;;;;0.25;0.20;;;;;;;;;;5094231;28;20067;-69
2022/04/07 11:07:16;;;;;;;0.17;0.17;;;;;;;;;;5100972;28;20393;-69
2022/04/07 11:09:45;;;;;;;0.47;0.30;;;;;;;;;;5070864;27;20131;-70
2022/04/07 11:12:18;;;;;;;0.20;0.10;;;;;;;;;;5073993;28;20127;-70
2022/04/07 11:14:47;;;;;;;0.55;0.40;;;;;;;;;;5066308;28;20049;-70
2022/04/07 11:17:23;;;;;;;2.53;0.40;;;;;;;;;;5067128;28;20049;-71
2022/04/07 11:20:02;;;;;;;0.20;0.20;;;;;;;;;;5054817;27;20049;-71
2022/04/07 11:22:46;;;;;;;0.10;0.10;;;;;;;;;;5053057;28;20382;-70
2022/04/07 11:25:16;;;;;;;1.08;0.40;;;;;;;;;;5052496;28;20060;-69
2022/04/07 11:27:45;;;;;;;3.15;0.30;;;;;;;;;;5067297;28;20041;-69
2022/04/07 11:30:15;;;;;;;2.10;0.28;;;;;;;;;;5066384;28;20075;-69
2022/04/07 11:32:59;;;;;;;3.17;0.30;;;;;;;;;;5053198;28;20048;-69
2022/04/07 11:35:29;;;;;;;1.08;0.20;;;;;;;;;;5050819;28;20080;-70
2022/04/07 11:37:59;;;;;;;0.65;0.30;;;;;;;;;;5058213;28;20124;-69
2022/04/07 11:40:27;;;;;;;1.73;0.30;;;;;;;;;;5047705;28;20057;-69
2022/04/07 11:42:56;;;;;;;0.28;0.28;;;;;;;;;;5054690;28;20045;-70
2022/04/07 11:45:32;;;;;;;0.20;0.20;;;;;;;;;;5060163;28;20049;-69
2022/04/07 11:48:01;;;;;;;0.32;0.15;;;;;;;;;;5052309;28;20127;-69
2022/04/07 11:50:31;;;;;;;1.98;0.38;;;;;;;;;;5043042;28;20045;-70
2022/04/07 11:53:00;;;;;;;0.20;0.15;;;;;;;;;;5050106;28;20492;-70
2022/04/07 11:55:29;;;;;;;0.30;0.13;;;;;;;;;;5041403;28;20119;-69
2022/04/07 11:58:01;;;;;;;0.35;0.20;;;;;;;;;;5049704;28;20489;-70
2022/04/07 12:00:36;;;;;;;2.00;0.15;;;;;;;;;;5014437;28;20076;-70
2022/04/07 12:03:05;;;;;;;0.30;0.20;;;;;;;;;;5027883;28;20097;-69
2022/04/07 12:05:39;;;;;;;0.10;0.10;;;;;;;;;;5020246;28;20096;-70
2022/04/07 12:08:11;;;;;;;0.70;0.20;;;;;;;;;;5023749;28;20148;-70
2022/04/07 12:10:41;;;;;;;0.73;0.20;;;;;;;;;;5047423;28;20090;-70
2022/04/07 12:13:10;;;;;;;1.17;0.15;;;;;;;;;;5026845;28;20053;-69
2022/04/07 12:15:39;;;;;;;0.20;0.20;;;;;;;;;;5027325;28;20055;-70
2022/04/07 12:18:09;;;;;;;0.35;0.20;;;;;;;;;;5023704;28;20136;-70
2022/04/07 12:20:40;;;;;;;0.40;0.20;;;;;;;;;;5026863;28;20136;-70
2022/04/07 12:23:10;;;;;;;0.10;0.10;;;;;;;;;;5019377;28;20046;-70
2022/04/07 12:25:39;;;;;;;1.95;0.20;;;;;;;;;;5032643;28;20045;-71
2022/04/07 12:28:08;;;;;;;2.05;0.30;;;;;;;;;;5041478;28;20505;-70
2022/04/07 12:30:44;;;;;;;1.23;0.50;;;;;;;;;;5035138;28;20671;-70
2022/04/07 12:33:13;;;;;;;0.50;0.30;;;;;;;;;;5045956;28;20099;-70
2022/04/07 12:35:49;;;;;;;0.17;0.17;;;;;;;;;;5051367;28;20750;-70
2022/04/07 12:38:19;;;;;;;0.10;0.10;;;;;;;;;;5060283;28;20499;-71
2022/04/07 12:40:49;;;;;;;0.10;0.10;;;;;;;;;;5029544;28;20041;-73
2022/04/07 12:43:18;;;;;;;0.22;0.20;;;;;;;;;;5029957;28;20052;-71
2022/04/07 12:45:57;;;;;;;0.38;0.10;;;;;;;;;;5038323;28;20045;-71
2022/04/07 12:48:27;;;;;;;0.30;0.17;;;;;;;;;;5042133;28;20063;-71
2022/04/07 12:50:59;;;;;;;0.47;0.17;;;;;;;;;;5057827;28;20345;-70
2022/04/07 12:53:29;;;;;;;3.13;0.20;;;;;;;;;;5063507;28;20552;-71
2022/04/07 12:56:02;;;;;;;0.10;0.00;;;;;;;;;;5052968;28;20108;-72
2022/04/07 12:58:35;;;;;;;0.20;0.20;;;;;;;;;;5048097;28;20052;-71
2022/04/07 13:01:08;;;;;;;0.50;0.30;;;;;;;;;;5027464;28;20140;-72
2022/04/07 13:03:51;;;;;;;1.13;0.15;;;;;;;;;;5028458;28;20099;-72
2022/04/07 13:06:21;;;;;;;0.40;0.40;;;;;;;;;;5036958;28;20209;-72
2022/04/07 13:08:49;;;;;;;0.80;0.20;;;;;;;;;;5026569;28;20045;-72
2022/04/07 13:11:32;;;;;;;0.10;0.10;;;;;;;;;;5029596;28;20126;-71
2022/04/07 13:14:01;;;;;;;1.75;0.20;;;;;;;;;;5036978;28;20045;-71
2022/04/07 13:16:31;;;;;;;2.92;0.13;;;;;;;;;;5034682;28;20562;-71
2022/04/07 13:19:00;;;;;;;4.00;0.20;;;;;;;;;;5033416;28;20171;-72
2022/04/07 13:21:30;;;;;;;0.63;0.20;;;;;;;;;;5051935;28;20044;-71
2022/04/07 13:23:59;;;;;;;0.25;0.20;;;;;;;;;;5054345;28;20052;-71
2022/04/07 13:26:28;;;;;;;2.28;0.63;;;;;;;;;;5051692;28;20037;-71
2022/04/07 13:28:57;;;;;;;5.32;0.20;;;;;;;;;;5042781;28;20165;-71
2022/04/07 13:31:26;;;;;;;0.45;0.20;;;;;;;;;;5041240;28;20055;-71
2022/04/07 13:33:55;;;;;;;1.45;0.10;;;;;;;;;;5045546;28;20045;-71
2022/04/07 13:36:24;;;;;;;0.30;0.20;;;;;;;;;;5034904;28;20049;-71
2022/04/07 13:38:54;;;;;;;0.10;0.10;;;;;;;;;;5035668;28;20049;-72
2022/04/07 13:41:24;;;;;;;1.13;0.15;;;;;;;;;;5042834;28;20445;-71
2022/04/07 13:43:53;;;;;;;1.38;0.20;;;;;;;;;;5039323;28;20536;-72
2022/04/07 13:46:22;;;;;;;1.15;0.10;;;;;;;;;;5035560;28;20381;-71
2022/04/07 13:48:51;;;;;;;0.10;0.10;;;;;;;;;;5034768;28;20129;-72
2022/04/07 13:51:20;;;;;;;1.75;0.10;;;;;;;;;;5047760;28;20484;-71
2022/04/07 13:53:49;;;;;;;0.30;0.10;;;;;;;;;;5052444;28;20120;-70
2022/04/07 13:56:19;;;;;;;0.20;0.20;;;;;;;;;;5056728;28;20123;-71
2022/04/07 13:58:49;;;;;;;1.45;0.20;;;;;;;;;;5041924;28;20788;-71
2022/04/07 14:01:21;;;;;;;0.10;0.10;;;;;;;;;;5026779;28;20061;-70
2022/04/07 14:03:53;;;;;;;0.52;0.20;;;;;;;;;;5027341;28;20041;-71
2022/04/07 14:06:21;;;;;;;0.80;0.20;;;;;;;;;;5033885;28;20145;-71
2022/04/07 14:08:50;;;;;;;2.15;0.30;;;;;;;;;;5036097;28;20064;-71
2022/04/07 14:11:21;;;;;;;0.15;0.15;;;;;;;;;;5031079;28;20061;-71
2022/04/07 14:13:51;;;;;;;0.47;0.10;;;;;;;;;;5026262;28;20045;-71
2022/04/07 14:16:21;;;;;;;0.10;0.10;;;;;;;;;;5026981;28;20045;-71
2022/04/07 14:18:50;;;;;;;0.28;0.10;;;;;;;;;;5037308;28;20391;-72
2022/04/07 14:21:20;;;;;;;2.25;0.20;;;;;;;;;;5032471;28;20045;-70
2022/04/07 14:23:54;;;;;;;1.50;0.30;;;;;;;;;;5042452;28;20128;-71
2022/04/07 14:26:25;;;;;;;1.38;0.25;;;;;;;;;;5034133;28;20325;-72
2022/04/07 14:28:54;;;;;;;0.30;0.20;;;;;;;;;;5038887;28;20064;-71
2022/04/07 14:31:23;;;;;;;0.10;0.10;;;;;;;;;;5048457;28;20055;-71
2022/04/07 14:33:52;;;;;;;0.30;0.10;;;;;;;;;;5060719;28;20416;-71
2022/04/07 14:36:21;;;;;;;0.15;0.10;;;;;;;;;;5048668;28;20532;-71
2022/04/07 14:38:50;;;;;;;1.55;0.15;;;;;;;;;;5053143;28;20074;-71
2022/04/07 14:41:19;;;;;;;0.15;0.13;;;;;;;;;;5061178;28;20040;-72
2022/04/07 14:43:49;;;;;;;1.35;0.38;;;;;;;;;;5049166;28;20049;-71
2022/04/07 14:46:22;;;;;;;1.40;0.13;;;;;;;;;;5045297;28;20060;-71
2022/04/07 14:48:52;;;;;;;0.15;0.10;;;;;;;;;;5041792;28;20050;-71
2022/04/07 14:51:20;;;;;;;0.50;0.20;;;;;;;;;;5035127;28;20052;-71
2022/04/07 14:53:49;;;;;;;0.15;0.13;;;;;;;;;;5035375;28;20041;-70
2022/04/07 14:56:18;;;;;;;1.10;0.20;;;;;;;;;;5026065;28;20555;-70
2022/04/07 14:58:48;;;;;;;0.10;0.10;;;;;;;;;;5039099;28;20046;-71
2022/04/07 15:01:17;;;;;;;0.22;0.20;;;;;;;;;;5025252;28;20081;-71
2022/04/07 15:03:46;;;;;;;0.38;0.20;;;;;;;;;;5030544;28;20527;-71
2022/04/07 15:06:15;;;;;;;0.17;0.15;;;;;;;;;;5023303;28;20049;-70